Time;durP1;ratioP1;P1;durP2;ratioP2;P2;SDS_P1;SDS_P2;PMS_P1;PMS_P2;Temp;Humidity;BMP_temperature;BMP_pressure;BME280_temperature;BME280_humidity;BME280_pressure;Samples;Min_cycle;Max_cycle;Signal;HPM_P1;HPM_P2
2022/01/11 00:01:03;;;;;;;18.43;10.60;;;5.70;99.90;;;;;;5053102;28;20241;-73
2022/01/11 00:03:30;;;;;;;17.80;10.97;;;5.50;99.90;;;;;;5073405;28;20509;-77
2022/01/11 00:06:01;;;;;;;19.43;11.17;;;5.70;99.90;;;;;;5038631;28;20341;-78
2022/01/11 00:08:32;;;;;;;19.83;11.20;;;5.90;99.90;;;;;;5073375;28;20219;-77
2022/01/11 00:11:03;;;;;;;16.17;10.30;;;5.90;99.90;;;;;;5072365;28;20196;-75
2022/01/11 00:13:34;;;;;;;15.13;9.47;;;5.80;99.90;;;;;;5073474;28;20211;-73
2022/01/11 00:16:01;;;;;;;18.33;10.37;;;5.60;99.90;;;;;;5073235;28;20234;-75
2022/01/11 00:18:27;;;;;;;21.57;12.00;;;5.60;99.90;;;;;;5055211;28;20653;-74
2022/01/11 00:20:54;;;;;;;19.33;11.43;;;5.70;99.90;;;;;;5073342;28;20196;-75
2022/01/11 00:25:50;;;;;;;21.13;10.67;;;5.80;99.90;;;;;;5073017;28;20173;-79
2022/01/11 00:28:18;;;;;;;20.40;10.77;;;5.80;99.90;;;;;;5071709;28;20199;-74
2022/01/11 00:30:45;;;;;;;18.97;10.90;;;5.70;99.90;;;;;;5055264;28;20280;-76
2022/01/11 00:33:17;;;;;;;20.93;11.13;;;5.70;99.90;;;;;;5055113;28;20200;-75
2022/01/11 00:35:57;;;;;;;19.30;9.50;;;5.60;99.90;;;;;;5071428;28;20679;-74
2022/01/11 00:38:25;;;;;;;19.70;11.70;;;5.60;99.90;;;;;;5071754;28;20212;-75
2022/01/11 00:40:55;;;;;;;16.27;9.73;;;5.70;99.90;;;;;;5072841;28;20283;-78
2022/01/11 00:43:23;;;;;;;19.30;10.23;;;5.80;99.90;;;;;;5055300;28;20265;-74
2022/01/11 00:45:50;;;;;;;20.47;11.00;;;5.60;99.90;;;;;;5071299;28;20557;-78
2022/01/11 00:48:16;;;;;;;17.37;10.43;;;5.70;99.90;;;;;;5054362;28;20230;-77
2022/01/11 00:50:42;;;;;;;15.60;10.10;;;5.80;99.90;;;;;;5054532;28;20287;-78
2022/01/11 00:53:10;;;;;;;19.43;11.07;;;5.80;99.90;;;;;;5072825;28;20617;-77
2022/01/11 00:55:36;;;;;;;17.33;10.60;;;5.70;99.90;;;;;;5054425;28;20200;-74
2022/01/11 00:58:02;;;;;;;21.77;11.00;;;5.70;99.90;;;;;;5070849;28;20238;-75
2022/01/11 01:00:29;;;;;;;21.70;10.97;;;5.80;99.90;;;;;;5053449;28;20560;-78
2022/01/11 01:02:55;;;;;;;20.83;10.77;;;5.80;99.90;;;;;;5072170;28;20242;-76
2022/01/11 01:05:22;;;;;;;19.57;10.40;;;5.80;99.90;;;;;;5054552;28;20648;-73
2022/01/11 01:07:49;;;;;;;18.73;10.77;;;5.80;99.90;;;;;;5071105;28;20619;-73
2022/01/11 01:10:26;;;;;;;20.30;10.47;;;5.90;99.90;;;;;;5072017;28;20584;-77
2022/01/11 01:12:53;;;;;;;18.20;10.00;;;5.70;99.90;;;;;;5072437;28;20188;-78
2022/01/11 01:15:20;;;;;;;19.70;9.40;;;5.30;99.90;;;;;;5070457;28;20216;-79
2022/01/11 01:17:46;;;;;;;19.10;10.97;;;5.50;99.90;;;;;;5054070;28;20254;-77
2022/01/11 01:20:13;;;;;;;21.43;11.03;;;5.70;99.90;;;;;;5070787;28;20215;-76
2022/01/11 01:22:38;;;;;;;21.40;11.90;;;5.80;99.90;;;;;;5070345;28;20754;-73
2022/01/11 01:25:05;;;;;;;21.27;11.30;;;5.80;99.90;;;;;;5070888;28;20208;-74
2022/01/11 01:27:31;;;;;;;20.70;11.47;;;5.80;99.90;;;;;;5070284;28;20207;-78
2022/01/11 01:29:57;;;;;;;18.77;11.63;;;5.80;99.90;;;;;;5054074;28;20314;-77
2022/01/11 01:32:24;;;;;;;21.80;11.00;;;5.80;99.90;;;;;;5053847;28;20622;-79
2022/01/11 01:34:50;;;;;;;21.93;12.43;;;5.70;99.90;;;;;;5070709;28;20295;-78
2022/01/11 01:37:16;;;;;;;17.77;10.33;;;5.70;99.90;;;;;;5071392;28;20286;-74
2022/01/11 01:39:43;;;;;;;22.40;10.80;;;5.70;99.90;;;;;;5070605;28;20197;-74
2022/01/11 01:42:11;;;;;;;23.70;12.17;;;5.70;99.90;;;;;;5071435;28;20196;-77
2022/01/11 01:44:41;;;;;;;20.70;10.67;;;5.70;99.90;;;;;;5070309;28;20229;-78
2022/01/11 01:47:08;;;;;;;19.60;10.93;;;5.80;99.90;;;;;;5053290;28;20188;-77
2022/01/11 01:49:39;;;;;;;18.90;10.50;;;5.80;99.90;;;;;;5070250;28;20227;-74
2022/01/11 01:52:05;;;;;;;22.03;12.33;;;5.70;99.90;;;;;;5071339;28;20208;-78
2022/01/11 01:54:31;;;;;;;18.87;11.07;;;5.70;99.90;;;;;;5070112;28;20235;-74
2022/01/11 01:56:58;;;;;;;19.20;10.43;;;5.70;99.90;;;;;;5053095;28;20246;-78
2022/01/11 01:59:24;;;;;;;20.47;11.67;;;5.70;99.90;;;;;;5069890;28;20565;-73
2022/01/11 02:01:50;;;;;;;19.27;10.90;;;5.60;99.90;;;;;;5033631;28;20201;-74
2022/01/11 02:04:18;;;;;;;16.27;10.67;;;5.60;99.90;;;;;;5077413;28;20207;-73
2022/01/11 02:06:46;;;;;;;18.83;10.97;;;5.70;99.90;;;;;;5070530;28;20211;-77
2022/01/11 02:09:15;;;;;;;19.00;10.63;;;5.60;99.90;;;;;;5069725;28;20195;-73
2022/01/11 02:11:42;;;;;;;20.20;11.57;;;5.70;99.90;;;;;;5054263;28;20180;-80
2022/01/11 02:14:08;;;;;;;20.30;10.17;;;5.60;99.90;;;;;;5053064;28;20569;-79
2022/01/11 02:16:34;;;;;;;16.73;10.60;;;5.60;99.90;;;;;;5069409;28;20235;-75
2022/01/11 02:19:01;;;;;;;18.60;10.67;;;5.40;99.90;;;;;;5052950;28;20879;-78
2022/01/11 02:21:27;;;;;;;17.33;11.10;;;5.50;99.90;;;;;;5070968;28;20694;-77
2022/01/11 02:23:53;;;;;;;27.50;12.07;;;5.50;99.90;;;;;;5071355;28;20200;-74
2022/01/11 02:26:21;;;;;;;20.87;11.27;;;5.60;99.90;;;;;;5070889;28;20283;-74
2022/01/11 02:28:47;;;;;;;21.80;11.80;;;5.60;99.90;;;;;;5071523;28;20192;-75
2022/01/11 02:31:13;;;;;;;23.40;12.23;;;5.60;99.90;;;;;;5071499;28;20192;-77
2022/01/11 02:33:46;;;;;;;24.83;11.80;;;5.50;99.90;;;;;;5071442;28;20204;-78
2022/01/11 02:36:33;;;;;;;20.07;9.97;;;5.40;99.90;;;;;;5068750;28;20200;-76
2022/01/11 02:38:59;;;;;;;22.27;10.77;;;5.40;99.90;;;;;;5069308;28;20204;-74
2022/01/11 02:41:28;;;;;;;20.13;11.17;;;5.50;99.90;;;;;;5053017;28;20234;-74
2022/01/11 02:43:54;;;;;;;22.40;11.63;;;5.50;99.90;;;;;;5069388;28;20204;-74
2022/01/11 02:46:22;;;;;;;22.70;11.90;;;5.50;99.90;;;;;;5071043;28;20200;-74
2022/01/11 02:48:50;;;;;;;22.23;10.80;;;5.50;99.90;;;;;;5069474;28;20712;-74
2022/01/11 02:51:19;;;;;;;25.70;12.33;;;5.40;99.90;;;;;;5069271;28;20200;-75
2022/01/11 02:53:48;;;;;;;21.87;10.77;;;5.30;99.90;;;;;;5069516;28;20624;-74
2022/01/11 02:56:16;;;;;;;19.90;11.13;;;4.80;99.90;;;;;;5052460;28;20625;-75
2022/01/11 02:58:42;;;;;;;17.43;10.33;;;4.70;99.90;;;;;;5052441;28;20208;-78
2022/01/11 03:01:09;;;;;;;23.43;11.57;;;4.80;99.90;;;;;;5070803;28;20211;-78
2022/01/11 03:03:35;;;;;;;18.70;10.40;;;5.00;99.90;;;;;;5069437;28;20208;-76
2022/01/11 03:06:03;;;;;;;19.20;10.87;;;5.10;99.90;;;;;;5036470;28;20238;-75
2022/01/11 03:08:32;;;;;;;17.27;10.03;;;5.00;99.90;;;;;;5052827;28;20208;-79
2022/01/11 03:10:58;;;;;;;17.33;10.00;;;4.70;99.90;;;;;;5070108;28;20211;-74
2022/01/11 03:13:24;;;;;;;15.57;10.20;;;4.80;99.90;;;;;;5053944;28;20231;-79
2022/01/11 03:15:53;;;;;;;22.57;10.93;;;5.00;99.90;;;;;;5036782;28;20398;-77
2022/01/11 03:18:20;;;;;;;19.30;10.77;;;5.20;99.90;;;;;;5052960;28;20662;-78
2022/01/11 03:20:49;;;;;;;20.93;10.73;;;5.40;99.90;;;;;;5071586;28;20589;-78
2022/01/11 03:23:18;;;;;;;15.43;10.23;;;5.50;99.90;;;;;;5072554;28;20192;-78
2022/01/11 03:25:45;;;;;;;17.23;9.70;;;5.60;99.90;;;;;;5074008;28;20200;-75
2022/01/11 03:28:11;;;;;;;15.77;9.93;;;5.60;99.90;;;;;;5073100;28;20196;-79
2022/01/11 03:30:37;;;;;;;17.50;9.80;;;5.40;99.90;;;;;;5073844;28;20271;-74
2022/01/11 03:33:06;;;;;;;16.37;9.33;;;5.60;99.90;;;;;;5073040;28;20293;-74
2022/01/11 03:35:32;;;;;;;18.77;10.83;;;5.60;99.90;;;;;;5074014;28;20631;-78
2022/01/11 03:37:58;;;;;;;17.17;10.77;;;5.70;99.90;;;;;;5074241;28;20228;-75
2022/01/11 03:40:27;;;;;;;16.83;9.83;;;5.70;99.90;;;;;;5072036;28;20930;-74
2022/01/11 03:42:53;;;;;;;17.10;9.90;;;5.70;99.90;;;;;;5072778;28;20199;-78
2022/01/11 03:45:24;;;;;;;14.30;9.57;;;5.40;99.90;;;;;;5055102;28;20700;-75
2022/01/11 03:47:52;;;;;;;18.00;10.47;;;5.50;99.90;;;;;;5074463;28;20280;-78
2022/01/11 03:50:19;;;;;;;18.10;9.63;;;5.30;99.90;;;;;;5074504;28;20751;-75
2022/01/11 03:52:45;;;;;;;18.73;9.97;;;5.00;99.90;;;;;;5073492;28;20214;-78
2022/01/11 03:55:14;;;;;;;15.03;9.53;;;5.10;99.90;;;;;;5072885;28;20189;-73
2022/01/11 03:57:42;;;;;;;19.27;10.50;;;5.30;99.90;;;;;;5074243;28;20219;-80
2022/01/11 04:00:12;;;;;;;15.43;9.73;;;5.20;99.90;;;;;;5074052;28;20249;-73
2022/01/11 04:02:38;;;;;;;19.03;10.23;;;5.20;99.90;;;;;;5073920;28;20204;-75
2022/01/11 04:05:06;;;;;;;20.00;10.47;;;5.40;99.90;;;;;;5071981;28;20744;-78
2022/01/11 04:07:31;;;;;;;20.40;10.83;;;5.60;99.90;;;;;;5073690;28;20287;-73
2022/01/11 04:09:57;;;;;;;17.77;10.87;;;5.70;99.90;;;;;;5055344;28;20302;-74
2022/01/11 04:12:24;;;;;;;22.30;10.63;;;5.70;99.90;;;;;;5072058;28;20219;-75
2022/01/11 04:14:51;;;;;;;20.23;10.63;;;5.70;99.90;;;;;;5070988;28;20204;-76
2022/01/11 04:17:17;;;;;;;16.63;10.37;;;5.70;99.90;;;;;;5072157;28;20291;-74
2022/01/11 04:19:43;;;;;;;23.90;11.40;;;5.70;99.90;;;;;;5073350;28;20295;-74
2022/01/11 04:22:08;;;;;;;17.53;10.20;;;5.70;99.90;;;;;;5072994;28;20204;-78
2022/01/11 04:24:34;;;;;;;18.93;10.57;;;5.70;99.90;;;;;;5071669;28;20994;-74
2022/01/11 04:27:00;;;;;;;17.27;10.40;;;5.70;99.90;;;;;;5072938;28;20196;-74
2022/01/11 04:29:26;;;;;;;14.87;10.13;;;5.70;99.90;;;;;;5072774;28;20204;-77
2022/01/11 04:31:52;;;;;;;17.83;10.77;;;5.70;99.90;;;;;;5054986;28;20204;-78
2022/01/11 04:34:18;;;;;;;20.27;10.70;;;5.60;99.90;;;;;;5072327;28;20208;-74
2022/01/11 04:36:44;;;;;;;19.83;11.27;;;5.60;99.90;;;;;;5054893;28;20580;-75
2022/01/11 04:39:13;;;;;;;20.33;10.50;;;5.60;99.90;;;;;;5071547;28;20204;-75
2022/01/11 04:41:39;;;;;;;20.57;9.63;;;5.60;99.90;;;;;;5071538;28;20695;-74
2022/01/11 04:44:06;;;;;;;16.30;10.13;;;5.60;99.90;;;;;;5071505;28;20203;-76
2022/01/11 04:46:32;;;;;;;17.07;10.33;;;5.80;99.90;;;;;;5071149;28;20211;-74
2022/01/11 04:49:00;;;;;;;20.43;10.67;;;5.70;99.90;;;;;;5071431;28;20192;-78
2022/01/11 04:51:27;;;;;;;19.13;10.23;;;5.60;99.90;;;;;;5071725;28;20177;-78
2022/01/11 04:53:53;;;;;;;19.90;11.20;;;5.60;99.90;;;;;;5071682;28;20199;-78
2022/01/11 04:56:19;;;;;;;14.83;9.90;;;5.60;99.90;;;;;;5072211;28;20197;-74
2022/01/11 04:58:45;;;;;;;21.60;10.30;;;5.60;99.90;;;;;;5072887;28;20587;-78
2022/01/11 05:01:11;;;;;;;18.67;10.07;;;5.60;99.90;;;;;;5071373;28;20203;-74
2022/01/11 05:03:37;;;;;;;17.60;9.90;;;5.60;99.90;;;;;;5054555;28;20210;-77
2022/01/11 05:06:04;;;;;;;18.30;9.67;;;5.50;99.90;;;;;;5072684;28;20189;-78
2022/01/11 05:08:31;;;;;;;20.57;10.47;;;5.50;99.90;;;;;;5071365;28;20196;-78
2022/01/11 05:10:58;;;;;;;19.73;10.13;;;5.50;99.90;;;;;;5050222;28;20652;-77
2022/01/11 05:13:24;;;;;;;20.73;10.20;;;5.50;99.90;;;;;;5051051;28;20205;-73
2022/01/11 05:15:50;;;;;;;16.43;10.03;;;5.50;99.90;;;;;;5051947;28;20207;-74
2022/01/11 05:18:17;;;;;;;16.93;9.63;;;5.70;99.90;;;;;;5051917;28;20232;-75
2022/01/11 05:20:43;;;;;;;15.33;10.13;;;5.70;99.90;;;;;;5068075;28;20274;-78
2022/01/11 05:23:10;;;;;;;17.33;9.80;;;5.70;99.90;;;;;;5051162;28;20205;-74
2022/01/11 05:25:37;;;;;;;17.57;10.70;;;5.70;99.90;;;;;;5052928;28;20196;-78
2022/01/11 05:28:03;;;;;;;19.20;9.50;;;5.70;99.90;;;;;;5053074;28;20232;-78
2022/01/11 05:30:29;;;;;;;18.93;9.97;;;5.60;99.90;;;;;;5051156;28;20203;-74
2022/01/11 05:32:56;;;;;;;16.80;8.73;;;5.60;99.90;;;;;;5067523;28;20204;-77
2022/01/11 05:35:23;;;;;;;16.60;9.70;;;5.60;99.90;;;;;;5034601;28;20274;-75
2022/01/11 05:37:50;;;;;;;15.07;9.03;;;5.70;99.90;;;;;;5033822;28;20236;-74
2022/01/11 05:40:17;;;;;;;19.73;9.80;;;5.70;99.90;;;;;;5051532;28;20192;-78
2022/01/11 05:42:44;;;;;;;18.87;10.00;;;5.60;99.90;;;;;;5034476;28;20576;-74
2022/01/11 05:45:11;;;;;;;17.53;9.60;;;5.30;99.90;;;;;;5049609;28;20204;-73
2022/01/11 05:47:37;;;;;;;21.03;10.87;;;5.30;99.90;;;;;;5051859;28;20174;-78
2022/01/11 05:50:09;;;;;;;18.30;9.60;;;5.40;99.90;;;;;;5034111;28;20735;-73
2022/01/11 05:52:36;;;;;;;14.37;9.43;;;5.50;99.90;;;;;;5050089;28;20201;-78
2022/01/11 05:55:03;;;;;;;18.50;10.23;;;5.60;99.90;;;;;;5069205;28;20735;-78
2022/01/11 05:57:29;;;;;;;19.70;11.40;;;5.60;99.90;;;;;;5070597;28;20274;-75
2022/01/11 05:59:54;;;;;;;20.07;11.03;;;5.70;99.90;;;;;;5070246;28;20745;-77
2022/01/11 06:02:20;;;;;;;22.80;11.27;;;5.70;99.90;;;;;;5054761;28;20282;-77
2022/01/11 06:04:46;;;;;;;19.30;10.23;;;5.70;99.90;;;;;;5071088;28;20203;-73
2022/01/11 06:07:12;;;;;;;17.00;10.40;;;5.70;99.90;;;;;;5053556;28;20674;-77
2022/01/11 06:09:37;;;;;;;18.43;10.27;;;5.60;99.90;;;;;;5070310;28;20679;-77
2022/01/11 06:12:04;;;;;;;20.23;10.83;;;5.70;99.90;;;;;;5053126;28;20256;-72
2022/01/11 06:14:29;;;;;;;20.03;10.87;;;5.70;99.90;;;;;;5070117;28;20207;-77
2022/01/11 06:16:55;;;;;;;16.13;10.43;;;5.70;99.90;;;;;;5052764;28;20587;-78
2022/01/11 06:19:21;;;;;;;19.70;10.20;;;5.80;99.90;;;;;;5070106;28;20544;-78
2022/01/11 06:21:47;;;;;;;19.10;11.17;;;5.90;99.90;;;;;;5070469;28;20192;-74
2022/01/11 06:24:13;;;;;;;18.93;10.23;;;5.90;99.90;;;;;;5071712;28;20204;-74
2022/01/11 06:26:39;;;;;;;20.90;11.93;;;5.70;99.90;;;;;;5069241;28;20207;-73
2022/01/11 06:29:05;;;;;;;17.47;10.07;;;5.80;99.90;;;;;;5069669;28;20302;-78
2022/01/11 06:31:34;;;;;;;21.03;11.50;;;5.70;99.90;;;;;;5052469;28;20206;-74
2022/01/11 06:34:00;;;;;;;19.13;10.73;;;5.80;99.90;;;;;;5052248;28;20188;-77
2022/01/11 06:36:25;;;;;;;18.97;11.47;;;5.70;99.90;;;;;;5067384;28;20212;-77
2022/01/11 06:38:51;;;;;;;18.43;10.80;;;5.50;99.90;;;;;;5069719;28;20558;-74
2022/01/11 06:41:17;;;;;;;25.53;12.50;;;5.70;99.90;;;;;;5051322;28;20265;-80
2022/01/11 06:43:43;;;;;;;21.23;12.27;;;5.80;99.90;;;;;;5068069;28;20242;-77
2022/01/11 06:46:09;;;;;;;22.37;12.27;;;5.70;99.90;;;;;;5054419;28;20185;-78
2022/01/11 06:48:34;;;;;;;22.47;12.13;;;5.70;99.90;;;;;;5063537;28;20608;-74
2022/01/11 06:51:01;;;;;;;22.53;12.97;;;5.70;99.90;;;;;;5068309;28;20196;-75
2022/01/11 06:53:28;;;;;;;32.33;19.40;;;5.80;99.90;;;;;;5084588;28;20203;-78
2022/01/11 06:55:54;;;;;;;24.60;14.33;;;5.60;99.90;;;;;;5047845;28;20227;-73
2022/01/11 06:58:21;;;;;;;18.13;12.03;;;5.60;99.90;;;;;;5052914;28;20213;-73
2022/01/11 07:00:48;;;;;;;19.50;12.47;;;5.60;99.90;;;;;;5065483;28;20201;-79
2022/01/11 07:03:15;;;;;;;23.57;12.00;;;5.80;99.90;;;;;;5072443;28;20200;-74
2022/01/11 07:05:42;;;;;;;26.43;15.10;;;5.70;99.90;;;;;;5089654;28;20199;-75
2022/01/11 07:08:08;;;;;;;23.00;12.40;;;5.60;99.90;;;;;;5074580;28;20601;-75
2022/01/11 07:10:34;;;;;;;23.43;11.17;;;5.70;99.90;;;;;;5072414;28;20208;-72
2022/01/11 07:13:02;;;;;;;20.67;12.37;;;5.70;99.90;;;;;;5074165;28;20248;-72
2022/01/11 07:15:28;;;;;;;21.93;12.23;;;5.80;99.90;;;;;;5073122;28;20196;-73
2022/01/11 07:17:55;;;;;;;17.93;11.63;;;5.70;99.90;;;;;;5073482;28;20208;-74
2022/01/11 07:20:22;;;;;;;24.13;11.63;;;5.60;99.90;;;;;;5074359;28;20192;-76
2022/01/11 07:22:48;;;;;;;24.20;12.33;;;5.50;99.90;;;;;;5071907;28;20219;-74
2022/01/11 07:25:13;;;;;;;21.77;12.33;;;5.50;99.90;;;;;;5073357;28;20200;-75
2022/01/11 07:27:39;;;;;;;21.40;11.60;;;5.50;99.90;;;;;;5072905;28;20328;-78
2022/01/11 07:30:06;;;;;;;22.43;11.40;;;5.50;99.90;;;;;;5054888;28;20192;-76
2022/01/11 07:32:33;;;;;;;20.57;10.90;;;5.50;99.90;;;;;;5072357;28;20196;-74
2022/01/11 07:34:59;;;;;;;21.70;12.27;;;5.50;99.90;;;;;;5071896;28;20299;-73
2022/01/11 07:37:25;;;;;;;19.93;11.60;;;5.60;99.90;;;;;;5072286;28;20591;-74
2022/01/11 07:39:51;;;;;;;17.80;10.60;;;5.60;99.90;;;;;;5072454;28;20584;-73
2022/01/11 07:42:17;;;;;;;21.10;11.63;;;5.70;99.90;;;;;;5072196;28;20203;-72
2022/01/11 07:44:44;;;;;;;18.80;11.03;;;5.70;99.90;;;;;;5071975;28;20172;-73
2022/01/11 07:47:10;;;;;;;20.73;10.70;;;5.70;99.90;;;;;;5055360;28;20589;-78
2022/01/11 07:49:36;;;;;;;18.27;11.23;;;5.70;99.90;;;;;;5074210;28;20196;-76
2022/01/11 07:52:02;;;;;;;18.07;11.33;;;5.60;99.90;;;;;;5073645;28;20811;-74
2022/01/11 07:54:28;;;;;;;22.63;12.43;;;5.50;99.90;;;;;;5072425;28;20205;-78
2022/01/11 07:56:54;;;;;;;20.77;11.63;;;5.60;99.90;;;;;;5054949;28;20215;-74
2022/01/11 07:59:21;;;;;;;19.83;11.50;;;5.70;99.90;;;;;;5071934;28;20198;-75
2022/01/11 08:01:47;;;;;;;23.17;12.33;;;5.60;99.90;;;;;;5053074;28;20200;-73
2022/01/11 08:04:13;;;;;;;25.40;11.57;;;5.60;99.90;;;;;;5073644;28;20192;-78
2022/01/11 08:06:39;;;;;;;20.83;12.03;;;5.60;99.90;;;;;;5073152;28;20584;-78
2022/01/11 08:09:07;;;;;;;21.37;10.97;;;5.70;99.90;;;;;;5071803;28;20639;-78
2022/01/11 08:11:34;;;;;;;20.07;10.33;;;5.80;99.90;;;;;;5073361;28;20246;-78
2022/01/11 08:14:00;;;;;;;16.33;10.70;;;5.70;99.90;;;;;;5071614;28;20180;-76
2022/01/11 08:16:25;;;;;;;19.93;10.37;;;5.80;99.90;;;;;;5054045;28;20354;-78
2022/01/11 08:18:51;;;;;;;19.40;10.43;;;5.80;99.90;;;;;;5054674;28;20196;-77
2022/01/11 08:21:17;;;;;;;21.53;11.57;;;5.80;99.90;;;;;;5053943;28;20211;-78
2022/01/11 08:23:43;;;;;;;17.53;9.87;;;5.80;99.90;;;;;;5071153;28;20280;-77
2022/01/11 08:26:08;;;;;;;19.83;11.03;;;5.90;99.90;;;;;;5071833;28;20218;-79
2022/01/11 08:28:34;;;;;;;18.57;11.03;;;5.80;99.90;;;;;;5070931;28;20200;-77
2022/01/11 08:31:00;;;;;;;17.63;10.77;;;5.90;99.90;;;;;;5053795;28;20200;-73
2022/01/11 08:33:26;;;;;;;18.57;11.23;;;5.90;99.90;;;;;;5072710;28;20766;-73
2022/01/11 08:35:52;;;;;;;17.63;10.83;;;5.90;99.90;;;;;;5070464;28;20196;-77
2022/01/11 08:38:18;;;;;;;18.33;10.77;;;5.80;99.90;;;;;;5070831;28;20220;-74
2022/01/11 08:40:45;;;;;;;19.57;10.93;;;5.80;99.90;;;;;;5053923;28;20200;-77
2022/01/11 08:43:11;;;;;;;20.87;11.70;;;5.80;99.90;;;;;;5070679;28;20187;-73
2022/01/11 08:45:39;;;;;;;18.87;9.87;;;5.80;99.90;;;;;;5070410;28;20184;-76
2022/01/11 08:48:04;;;;;;;20.57;11.20;;;5.80;99.90;;;;;;5087470;28;20200;-76
2022/01/11 08:50:31;;;;;;;21.13;11.43;;;5.80;99.90;;;;;;5070182;28;20675;-73
2022/01/11 08:52:57;;;;;;;18.00;10.77;;;5.70;99.90;;;;;;5071477;28;20200;-73
2022/01/11 08:55:24;;;;;;;16.67;10.87;;;5.70;99.90;;;;;;5071739;28;20204;-79
2022/01/11 08:57:50;;;;;;;22.97;11.00;;;5.80;99.90;;;;;;5071793;28;20605;-76
2022/01/11 09:00:18;;;;;;;24.23;12.30;;;5.80;99.90;;;;;;5055010;28;20265;-77
2022/01/11 09:02:50;;;;;;;18.10;10.97;;;5.80;99.90;;;;;;5070720;28;20192;-76
2022/01/11 09:05:17;;;;;;;20.53;10.93;;;6.00;99.90;;;;;;5071675;28;20185;-74
2022/01/11 09:07:43;;;;;;;18.30;10.53;;;6.00;99.90;;;;;;5070458;28;20199;-78
2022/01/11 09:10:10;;;;;;;20.10;10.77;;;6.10;99.90;;;;;;5071243;28;20200;-73
2022/01/11 09:12:38;;;;;;;21.10;10.80;;;6.00;99.90;;;;;;5069639;28;20200;-74
2022/01/11 09:15:06;;;;;;;18.47;10.50;;;6.00;99.90;;;;;;5052550;28;20239;-78
2022/01/11 09:17:32;;;;;;;18.60;10.87;;;6.00;99.90;;;;;;5070284;28;20217;-72
2022/01/11 09:19:58;;;;;;;15.20;10.07;;;6.10;99.90;;;;;;5069330;28;20188;-78
2022/01/11 09:22:24;;;;;;;17.27;10.40;;;6.10;99.90;;;;;;5053347;28;20287;-77
2022/01/11 09:24:50;;;;;;;18.17;10.90;;;6.10;99.90;;;;;;5069382;28;20530;-77
2022/01/11 09:27:16;;;;;;;19.27;10.37;;;6.00;99.90;;;;;;5069372;28;20199;-77
2022/01/11 09:29:43;;;;;;;18.70;10.27;;;6.10;99.90;;;;;;5052989;28;20195;-77
2022/01/11 09:32:11;;;;;;;17.17;9.70;;;6.00;99.90;;;;;;5071198;28;20215;-73
2022/01/11 09:34:40;;;;;;;17.50;10.37;;;5.90;99.90;;;;;;5070907;28;20659;-74
2022/01/11 09:37:08;;;;;;;18.37;10.17;;;5.80;99.90;;;;;;5053527;28;20304;-74
2022/01/11 09:39:35;;;;;;;16.73;10.53;;;5.80;99.90;;;;;;5069712;28;20192;-75
2022/01/11 09:42:02;;;;;;;17.40;10.43;;;5.90;99.90;;;;;;5070234;28;20303;-73
2022/01/11 09:44:28;;;;;;;16.53;10.73;;;6.00;99.90;;;;;;5069507;28;20188;-73
2022/01/11 09:46:54;;;;;;;25.33;11.00;;;6.10;99.90;;;;;;5071652;28;20242;-77
2022/01/11 09:49:19;;;;;;;17.97;10.60;;;6.10;99.90;;;;;;5069338;28;20267;-74
2022/01/11 09:51:45;;;;;;;19.57;9.63;;;6.10;99.90;;;;;;5069544;28;20223;-77
2022/01/11 09:54:12;;;;;;;19.27;10.57;;;6.10;99.90;;;;;;5070383;28;20607;-72
2022/01/11 09:56:39;;;;;;;21.43;11.43;;;6.00;99.90;;;;;;5069226;28;20199;-76
2022/01/11 09:59:06;;;;;;;17.43;11.20;;;6.00;99.90;;;;;;5070931;28;20206;-77
2022/01/11 10:01:35;;;;;;;18.23;10.97;;;6.00;99.90;;;;;;5054800;28;20196;-77
2022/01/11 10:04:11;;;;;;;16.53;10.80;;;6.10;99.90;;;;;;5071458;28;20195;-77
2022/01/11 10:06:39;;;;;;;17.03;11.07;;;6.00;99.90;;;;;;5069082;28;20262;-73
2022/01/11 10:09:18;;;;;;;17.27;11.20;;;6.10;99.90;;;;;;5069316;28;20707;-78
2022/01/11 10:11:58;;;;;;;25.63;11.40;;;6.10;99.90;;;;;;5069372;28;20567;-77
2022/01/11 10:14:32;;;;;;;18.60;10.37;;;6.30;99.90;;;;;;5053225;28;20207;-76
2022/01/11 10:17:09;;;;;;;16.83;10.00;;;6.30;99.90;;;;;;5069951;28;20725;-73
2022/01/11 10:19:38;;;;;;;19.27;10.90;;;6.40;99.90;;;;;;5054179;28;20204;-76
2022/01/11 10:22:27;;;;;;;15.53;10.10;;;6.30;99.90;;;;;;5071004;28;20547;-72
2022/01/11 10:24:54;;;;;;;18.63;10.63;;;6.30;99.90;;;;;;5068898;28;20196;-73
2022/01/11 10:27:30;;;;;;;18.80;10.57;;;6.40;99.90;;;;;;5069720;28;20547;-73
2022/01/11 10:30:06;;;;;;;19.40;10.43;;;6.50;99.90;;;;;;5070565;28;20199;-78
2022/01/11 10:32:35;;;;;;;17.07;10.07;;;6.60;99.90;;;;;;5052653;28;20238;-77
2022/01/11 10:35:14;;;;;;;15.47;9.67;;;6.70;99.90;;;;;;5069135;28;20675;-73
2022/01/11 10:37:45;;;;;;;15.73;9.33;;;6.60;99.90;;;;;;5070886;28;20223;-73
2022/01/11 10:40:34;;;;;;;15.93;9.90;;;6.50;99.90;;;;;;5052922;28;20212;-77
2022/01/11 10:43:14;;;;;;;16.20;9.53;;;6.60;99.90;;;;;;5054148;28;20582;-72
2022/01/11 10:45:50;;;;;;;18.87;10.40;;;6.60;99.90;;;;;;5036376;28;20196;-79
2022/01/11 10:48:19;;;;;;;16.87;8.90;;;6.60;99.90;;;;;;5069335;28;20203;-80
2022/01/11 10:50:48;;;;;;;19.77;10.60;;;6.40;99.90;;;;;;5070409;28;20192;-73
2022/01/11 10:53:17;;;;;;;18.73;10.20;;;6.60;99.90;;;;;;5069103;28;20628;-77
2022/01/11 10:55:53;;;;;;;17.80;10.07;;;6.60;99.90;;;;;;5054451;28;20363;-77
2022/01/11 10:58:19;;;;;;;16.27;10.23;;;6.80;99.90;;;;;;5068887;28;20294;-77
2022/01/11 11:00:48;;;;;;;20.50;9.87;;;6.80;99.90;;;;;;5069264;28;20196;-74
2022/01/11 11:03:22;;;;;;;18.80;10.70;;;6.70;99.90;;;;;;5052472;28;20208;-77
2022/01/11 11:05:54;;;;;;;20.17;10.53;;;6.60;99.90;;;;;;5070164;28;20223;-75
2022/01/11 11:08:31;;;;;;;18.90;10.57;;;6.70;99.90;;;;;;5069089;28;20197;-74
2022/01/11 11:11:02;;;;;;;17.33;10.40;;;6.70;99.90;;;;;;5052523;28;20851;-73
2022/01/11 11:13:32;;;;;;;15.27;8.87;;;6.70;99.90;;;;;;5054738;28;20246;-73
2022/01/11 11:16:08;;;;;;;16.20;9.70;;;6.80;99.90;;;;;;5069965;28;20596;-78
2022/01/11 11:18:42;;;;;;;17.33;9.63;;;6.90;99.90;;;;;;5070604;28;20298;-76
2022/01/11 11:21:21;;;;;;;17.90;9.63;;;6.90;99.90;;;;;;5068369;28;20249;-74
2022/01/11 11:23:49;;;;;;;14.90;9.37;;;7.00;99.90;;;;;;5070601;28;20192;-77
2022/01/11 11:26:16;;;;;;;13.43;8.50;;;7.00;99.90;;;;;;5069534;28;20615;-78
2022/01/11 11:28:42;;;;;;;14.37;9.27;;;7.00;99.90;;;;;;5069151;28;20207;-76
2022/01/11 11:31:08;;;;;;;16.30;8.87;;;6.90;99.90;;;;;;5068439;28;20215;-74
2022/01/11 11:33:37;;;;;;;14.23;9.57;;;7.00;99.90;;;;;;5051484;28;20192;-72
2022/01/11 11:36:04;;;;;;;16.07;9.20;;;7.10;99.90;;;;;;5034945;28;20208;-74
2022/01/11 11:38:33;;;;;;;16.70;9.30;;;7.20;99.90;;;;;;5067862;28;20590;-77
2022/01/11 11:41:01;;;;;;;17.10;9.77;;;7.30;99.90;;;;;;5069482;28;20204;-75
2022/01/11 11:43:29;;;;;;;13.63;8.10;;;7.20;99.90;;;;;;5068953;28;20655;-77
2022/01/11 11:45:55;;;;;;;13.63;9.03;;;7.20;99.90;;;;;;5071572;28;20184;-74
2022/01/11 11:48:26;;;;;;;15.50;8.60;;;7.30;99.90;;;;;;5055272;28;20675;-74
2022/01/11 11:51:00;;;;;;;13.23;7.83;;;7.40;99.90;;;;;;5038719;28;20207;-73
2022/01/11 11:53:34;;;;;;;12.47;7.40;;;7.30;99.90;;;;;;5055141;28;20201;-74
2022/01/11 11:56:21;;;;;;;13.43;8.03;;;7.30;99.90;;;;;;5071546;28;20196;-74
2022/01/11 11:58:55;;;;;;;15.07;8.60;;;7.30;99.90;;;;;;5055185;28;20231;-76
2022/01/11 12:01:41;;;;;;;13.73;7.07;;;7.20;99.90;;;;;;5072211;28;20245;-74
2022/01/11 12:04:38;;;;;;;13.70;7.27;;;7.30;99.90;;;;;;5056015;28;20208;-76
2022/01/11 12:07:31;;;;;;;9.27;6.23;;;7.30;99.90;;;;;;5038229;28;20200;-73
2022/01/11 12:09:58;;;;;;;9.83;6.03;;;7.40;99.90;;;;;;5072471;28;20762;-75
2022/01/11 12:12:42;;;;;;;8.87;5.53;;;7.50;99.90;;;;;;5054174;28;20220;-76
2022/01/11 12:15:37;;;;;;;10.47;6.23;;;7.60;99.90;;;;;;5072251;28;20231;-77
2022/01/11 12:18:06;;;;;;;8.47;5.40;;;7.50;99.90;;;;;;5052692;28;20227;-73
2022/01/11 12:20:39;;;;;;;7.47;4.63;;;7.60;99.90;;;;;;5071076;28;20199;-75
2022/01/11 12:23:05;;;;;;;7.23;5.20;;;7.40;99.90;;;;;;5054101;28;20272;-78
2022/01/11 12:25:42;;;;;;;7.00;4.40;;;7.40;99.90;;;;;;5052833;28;20671;-77
2022/01/11 12:28:18;;;;;;;5.57;4.20;;;7.30;99.90;;;;;;5072169;28;20192;-73
2022/01/11 12:30:44;;;;;;;4.90;3.50;;;7.50;99.90;;;;;;5070585;28;20566;-76
2022/01/11 12:33:21;;;;;;;5.13;3.20;;;7.70;99.90;;;;;;5071043;28;20196;-77
2022/01/11 12:36:03;;;;;;;6.27;3.60;;;7.40;99.90;;;;;;5070515;28;20678;-74
2022/01/11 12:38:33;;;;;;;6.83;4.47;;;7.40;99.90;;;;;;5054226;28;20224;-74
2022/01/11 12:41:26;;;;;;;7.27;4.97;;;7.50;99.90;;;;;;5072075;28;20580;-77
2022/01/11 12:44:21;;;;;;;8.03;3.97;;;7.40;99.90;;;;;;5066287;28;20222;-77
2022/01/11 12:47:00;;;;;;;4.60;2.63;;;7.70;99.90;;;;;;5037733;28;20200;-77
2022/01/11 12:49:29;;;;;;;3.77;2.83;;;7.70;99.90;;;;;;5070776;28;20192;-77